Time;durP1;ratioP1;P1;durP2;ratioP2;P2;SDS_P1;SDS_P2;PMS_P1;PMS_P2;Temp;Humidity;BMP_temperature;BMP_pressure;BME280_temperature;BME280_humidity;BME280_pressure;Samples;Min_cycle;Max_cycle;Signal;HPM_P1;HPM_P2
2021/07/08 00:02:07;;;;;;;2.07;1.60;;;18.20;45.00;;;;;;5015852;28;20422;-69
2021/07/08 00:04:33;;;;;;;2.47;1.77;;;18.20;45.10;;;;;;5015791;28;20214;-69
2021/07/08 00:06:59;;;;;;;1.77;1.37;;;18.20;45.00;;;;;;5015737;28;20480;-69
2021/07/08 00:09:24;;;;;;;2.30;1.57;;;18.20;45.30;;;;;;5015150;28;20502;-70
2021/07/08 00:11:50;;;;;;;1.80;1.30;;;18.20;45.40;;;;;;5015925;28;20176;-71
2021/07/08 00:14:16;;;;;;;2.80;2.30;;;18.20;45.90;;;;;;5015805;28;20210;-70
2021/07/08 00:16:41;;;;;;;4.37;2.70;;;18.20;45.40;;;;;;5016098;28;20194;-70
2021/07/08 00:19:08;;;;;;;2.93;2.63;;;18.20;46.10;;;;;;5016337;28;20180;-70
2021/07/08 00:21:33;;;;;;;2.60;1.67;;;18.30;48.70;;;;;;4998695;28;20496;-70
2021/07/08 00:23:59;;;;;;;3.27;1.73;;;18.20;48.60;;;;;;5015908;28;20474;-69
2021/07/08 00:26:25;;;;;;;3.43;2.77;;;18.10;46.70;;;;;;5015788;28;20223;-69
2021/07/08 00:28:50;;;;;;;2.13;1.87;;;18.00;48.00;;;;;;5015515;28;20322;-71
2021/07/08 00:31:16;;;;;;;3.93;3.13;;;18.00;48.40;;;;;;5015032;28;20180;-70
2021/07/08 00:33:41;;;;;;;2.90;2.20;;;18.10;48.90;;;;;;5014384;28;20203;-70
2021/07/08 00:36:07;;;;;;;3.90;2.80;;;18.00;49.30;;;;;;5015160;28;20208;-69
2021/07/08 00:38:33;;;;;;;2.53;2.20;;;18.10;48.90;;;;;;5014921;28;20180;-71
2021/07/08 00:40:59;;;;;;;2.40;1.63;;;18.00;49.50;;;;;;5014044;28;20194;-71
2021/07/08 00:43:29;;;;;;;2.63;2.43;;;17.90;50.70;;;;;;5013662;28;20466;-70
2021/07/08 00:45:55;;;;;;;2.90;2.10;;;17.90;51.00;;;;;;5012949;28;20441;-72
2021/07/08 00:48:21;;;;;;;5.37;3.03;;;17.80;51.80;;;;;;5012238;28;20453;-72
2021/07/08 00:50:46;;;;;;;2.10;1.67;;;17.70;52.50;;;;;;5012386;28;20419;-72
2021/07/08 00:53:20;;;;;;;5.33;3.13;;;17.60;53.20;;;;;;5012267;28;20184;-72
2021/07/08 00:55:55;;;;;;;2.77;2.57;;;17.50;52.90;;;;;;4994721;28;20180;-72
2021/07/08 00:58:20;;;;;;;2.73;2.20;;;17.50;53.10;;;;;;5012093;28;20430;-72
2021/07/08 01:00:46;;;;;;;2.50;2.30;;;17.60;53.20;;;;;;5011743;28;20494;-72
2021/07/08 01:03:13;;;;;;;2.80;2.50;;;17.60;53.80;;;;;;5011918;28;20279;-72
2021/07/08 01:05:41;;;;;;;2.57;2.13;;;17.60;53.20;;;;;;4994394;28;20180;-72
2021/07/08 01:08:09;;;;;;;3.03;1.80;;;17.60;53.20;;;;;;5012082;28;20509;-72
2021/07/08 01:10:34;;;;;;;4.63;1.77;;;17.70;53.50;;;;;;4994614;28;20479;-73
2021/07/08 01:13:01;;;;;;;2.43;1.77;;;17.60;53.20;;;;;;4994928;28;20461;-73
2021/07/08 01:15:27;;;;;;;2.23;1.70;;;17.60;52.90;;;;;;4993994;28;20191;-72
2021/07/08 01:17:53;;;;;;;2.50;1.83;;;17.60;53.20;;;;;;5012015;28;20431;-72
2021/07/08 01:20:20;;;;;;;2.17;1.50;;;17.50;53.20;;;;;;5013009;28;20819;-72
2021/07/08 01:22:57;;;;;;;3.50;1.30;;;17.50;53.10;;;;;;5015426;28;20187;-72
2021/07/08 01:25:24;;;;;;;3.77;1.83;;;17.50;54.00;;;;;;5015274;28;20465;-73
2021/07/08 01:27:49;;;;;;;2.93;2.50;;;17.50;55.70;;;;;;5015585;28;20411;-72
2021/07/08 01:30:16;;;;;;;2.30;1.90;;;17.50;55.60;;;;;;5015438;28;20778;-72
2021/07/08 01:32:41;;;;;;;2.20;1.80;;;17.50;55.60;;;;;;5015867;28;20179;-72
2021/07/08 01:35:09;;;;;;;3.13;2.50;;;17.60;55.70;;;;;;4997957;28;20525;-72
2021/07/08 01:37:35;;;;;;;4.00;3.40;;;17.70;55.30;;;;;;5015721;28;20419;-72
2021/07/08 01:40:01;;;;;;;3.23;2.73;;;17.60;55.30;;;;;;5014718;28;20755;-73
2021/07/08 01:42:29;;;;;;;3.60;2.53;;;17.70;55.20;;;;;;5014839;28;20474;-72
2021/07/08 01:44:56;;;;;;;2.93;2.23;;;17.70;55.00;;;;;;5014861;28;20466;-73
2021/07/08 01:47:23;;;;;;;3.70;2.73;;;17.70;55.00;;;;;;5015233;28;20498;-72
2021/07/08 01:49:49;;;;;;;3.83;2.90;;;17.80;55.10;;;;;;5014927;28;20418;-72
2021/07/08 01:52:17;;;;;;;2.97;2.67;;;17.80;55.10;;;;;;5014842;28;20411;-72
2021/07/08 01:54:43;;;;;;;4.20;3.80;;;17.80;55.00;;;;;;4998036;28;20241;-72
2021/07/08 01:57:08;;;;;;;4.47;2.73;;;17.80;54.90;;;;;;5015625;28;20927;-71
2021/07/08 01:59:34;;;;;;;3.07;2.77;;;17.70;54.80;;;;;;4998068;28;20195;-73
2021/07/08 02:02:00;;;;;;;4.00;3.40;;;17.70;54.90;;;;;;5015807;28;20175;-73
2021/07/08 02:04:26;;;;;;;3.07;2.70;;;17.70;55.30;;;;;;4997936;28;21007;-72
2021/07/08 02:06:52;;;;;;;2.00;1.80;;;17.60;56.20;;;;;;5015372;28;20433;-73
2021/07/08 02:09:17;;;;;;;4.23;2.83;;;17.60;55.70;;;;;;5014924;28;20553;-73
2021/07/08 02:11:43;;;;;;;2.93;2.63;;;17.60;56.20;;;;;;5015517;28;20584;-71
2021/07/08 02:14:09;;;;;;;2.17;1.90;;;17.60;56.50;;;;;;5015378;28;20238;-73
2021/07/08 02:16:35;;;;;;;3.90;3.00;;;17.60;56.90;;;;;;5015442;28;20186;-73
2021/07/08 02:19:04;;;;;;;2.23;1.93;;;17.60;56.60;;;;;;5015193;28;20903;-71
2021/07/08 02:21:29;;;;;;;3.10;2.60;;;17.60;56.90;;;;;;5015246;28;20476;-72
2021/07/08 02:23:55;;;;;;;3.50;2.67;;;17.60;57.40;;;;;;4997122;28;20875;-72
2021/07/08 02:26:21;;;;;;;6.63;3.20;;;17.60;57.40;;;;;;5014891;28;20172;-73
2021/07/08 02:28:46;;;;;;;3.77;2.60;;;17.50;57.60;;;;;;5014192;28;20186;-72
2021/07/08 02:31:12;;;;;;;7.10;2.60;;;17.50;58.00;;;;;;5014154;28;20251;-73
2021/07/08 02:33:37;;;;;;;3.50;2.73;;;17.50;57.90;;;;;;4996368;28;20677;-72
2021/07/08 02:36:04;;;;;;;3.60;2.63;;;17.50;57.80;;;;;;5013760;28;20199;-72
2021/07/08 02:38:29;;;;;;;3.97;2.80;;;17.40;57.90;;;;;;5014399;28;20239;-71
2021/07/08 02:40:55;;;;;;;3.50;2.63;;;17.40;57.90;;;;;;4996420;28;20462;-73
2021/07/08 02:43:21;;;;;;;3.70;2.67;;;17.40;57.90;;;;;;5013727;28;20218;-72
2021/07/08 02:45:46;;;;;;;3.83;2.77;;;17.40;57.90;;;;;;5013957;28;20168;-73
2021/07/08 02:48:14;;;;;;;3.33;2.77;;;17.40;58.00;;;;;;5014014;28;20255;-72
2021/07/08 02:50:41;;;;;;;5.30;2.80;;;17.30;57.50;;;;;;5014062;28;20172;-72
2021/07/08 02:53:09;;;;;;;2.03;1.83;;;17.30;57.70;;;;;;4996197;28;20423;-72
2021/07/08 02:55:35;;;;;;;4.93;2.83;;;17.30;57.90;;;;;;4996601;28;20415;-72
2021/07/08 02:58:02;;;;;;;2.93;2.63;;;17.30;57.90;;;;;;5013755;28;20415;-72
2021/07/08 03:00:29;;;;;;;2.93;2.67;;;17.30;57.90;;;;;;5013966;28;20569;-73
2021/07/08 03:02:55;;;;;;;2.97;2.13;;;17.30;57.50;;;;;;5013775;28;20418;-72
2021/07/08 03:05:22;;;;;;;4.43;2.80;;;17.30;57.00;;;;;;5013602;28;20462;-72
2021/07/08 03:07:47;;;;;;;3.07;2.77;;;17.30;57.20;;;;;;5013295;28;20182;-71
2021/07/08 03:10:16;;;;;;;4.67;2.67;;;17.30;57.20;;;;;;5013530;28;20506;-72
2021/07/08 03:12:41;;;;;;;4.10;2.77;;;17.30;57.70;;;;;;5013329;28;20230;-72
2021/07/08 03:15:09;;;;;;;5.33;3.10;;;17.30;57.20;;;;;;5013391;28;20431;-73
2021/07/08 03:17:34;;;;;;;3.63;2.50;;;17.30;57.00;;;;;;5013292;28;20171;-72
2021/07/08 03:20:01;;;;;;;3.17;2.87;;;17.30;57.10;;;;;;4995402;28;20970;-71
2021/07/08 03:22:26;;;;;;;5.17;3.33;;;17.30;56.80;;;;;;5013206;28;20545;-72
2021/07/08 03:24:52;;;;;;;5.73;2.70;;;17.30;56.90;;;;;;4995209;28;20482;-72
2021/07/08 03:27:18;;;;;;;2.90;2.20;;;17.30;56.80;;;;;;5012794;28;20176;-72
2021/07/08 03:29:43;;;;;;;2.60;2.33;;;17.30;57.00;;;;;;5012597;28;20540;-72
2021/07/08 03:32:09;;;;;;;3.10;2.20;;;17.30;57.00;;;;;;4995090;28;20895;-72
2021/07/08 03:34:34;;;;;;;3.60;2.83;;;17.30;57.20;;;;;;5012410;28;20295;-71
2021/07/08 03:37:01;;;;;;;3.50;2.60;;;17.20;57.70;;;;;;4994691;28;20186;-73
2021/07/08 03:39:26;;;;;;;2.67;2.47;;;17.20;57.80;;;;;;5012031;28;20317;-72
2021/07/08 03:41:52;;;;;;;3.70;2.73;;;17.20;57.80;;;;;;5012374;28;20518;-72
2021/07/08 03:44:17;;;;;;;6.07;3.30;;;17.10;57.70;;;;;;4993612;28;20211;-73
2021/07/08 03:46:43;;;;;;;2.73;2.17;;;17.10;58.40;;;;;;5012654;28;20223;-72
2021/07/08 03:49:09;;;;;;;6.00;2.67;;;17.20;58.40;;;;;;4995241;28;20183;-71
2021/07/08 03:51:35;;;;;;;2.67;2.27;;;17.20;57.80;;;;;;5012565;28;20167;-71
2021/07/08 03:54:01;;;;;;;3.33;2.80;;;17.20;57.80;;;;;;5012022;28;20458;-71
2021/07/08 03:56:26;;;;;;;3.10;2.77;;;17.10;57.70;;;;;;4994179;28;20279;-73
2021/07/08 03:58:52;;;;;;;3.23;2.50;;;17.10;57.70;;;;;;5011657;28;20510;-72
2021/07/08 04:01:17;;;;;;;4.30;2.80;;;17.00;58.50;;;;;;5012295;28;20179;-71
2021/07/08 04:03:43;;;;;;;3.63;2.43;;;17.00;59.00;;;;;;5011310;28;20234;-72
2021/07/08 04:06:09;;;;;;;3.53;2.80;;;17.10;58.90;;;;;;4994588;28;20184;-73
2021/07/08 04:08:34;;;;;;;3.63;2.50;;;17.10;58.60;;;;;;5012119;28;20830;-72
2021/07/08 04:11:00;;;;;;;3.77;3.47;;;17.20;58.20;;;;;;5011698;28;20183;-72
2021/07/08 04:13:27;;;;;;;4.53;4.13;;;17.20;58.20;;;;;;5011919;28;20295;-73
2021/07/08 04:15:53;;;;;;;8.00;3.80;;;17.20;58.00;;;;;;5011699;28;20255;-72
2021/07/08 04:18:19;;;;;;;5.20;4.27;;;17.20;57.80;;;;;;5011599;28;20451;-72
2021/07/08 04:20:46;;;;;;;4.90;3.60;;;17.20;57.80;;;;;;5011722;28;20417;-72
2021/07/08 04:23:14;;;;;;;5.73;4.73;;;17.10;58.40;;;;;;5011471;28;20760;-71
2021/07/08 04:25:41;;;;;;;7.53;4.13;;;17.10;59.10;;;;;;5011637;28;20431;-73
2021/07/08 04:28:08;;;;;;;4.30;3.90;;;17.10;59.80;;;;;;5012078;28;20407;-72
2021/07/08 04:30:34;;;;;;;8.27;4.80;;;17.20;59.60;;;;;;4994197;28;20455;-73
2021/07/08 04:33:00;;;;;;;3.77;3.40;;;17.40;58.80;;;;;;5011699;28;20557;-72
2021/07/08 04:35:31;;;;;;;4.87;4.37;;;17.50;57.90;;;;;;4994032;28;20517;-71
2021/07/08 04:37:58;;;;;;;3.30;3.00;;;17.60;56.10;;;;;;5011432;28;20176;-72
2021/07/08 04:40:23;;;;;;;5.80;4.60;;;17.70;54.50;;;;;;5010962;28;20541;-72
2021/07/08 04:42:50;;;;;;;3.70;3.40;;;17.70;54.00;;;;;;5011458;28;20453;-71
2021/07/08 04:45:16;;;;;;;5.20;4.63;;;17.60;53.20;;;;;;4993810;28;20277;-72
2021/07/08 04:47:44;;;;;;;4.13;3.33;;;17.60;53.20;;;;;;5011764;28;20415;-72
2021/07/08 04:50:13;;;;;;;3.90;3.50;;;17.60;53.60;;;;;;4994067;28;20433;-72
2021/07/08 04:52:38;;;;;;;4.53;3.20;;;17.60;54.10;;;;;;5011940;28;20904;-72
2021/07/08 04:55:06;;;;;;;4.50;3.70;;;17.60;53.40;;;;;;5013169;28;20508;-72
2021/07/08 04:57:32;;;;;;;4.80;3.70;;;17.70;53.70;;;;;;5015723;28;20257;-73
2021/07/08 04:59:58;;;;;;;5.97;4.00;;;17.70;53.80;;;;;;5015154;28;20419;-72
2021/07/08 05:02:23;;;;;;;4.33;3.57;;;17.60;54.00;;;;;;4997449;28;20425;-72
2021/07/08 05:04:49;;;;;;;8.40;4.17;;;17.70;54.10;;;;;;4997466;28;20212;-72
2021/07/08 05:07:16;;;;;;;4.87;3.47;;;17.70;54.20;;;;;;5015941;28;20176;-72
2021/07/08 05:09:41;;;;;;;6.37;4.07;;;17.70;54.40;;;;;;4997923;28;20263;-71
2021/07/08 05:12:07;;;;;;;4.27;3.60;;;17.80;53.40;;;;;;5011836;28;20533;-72
2021/07/08 05:14:34;;;;;;;5.77;5.30;;;17.90;52.90;;;;;;5014064;28;20625;-72
2021/07/08 05:17:03;;;;;;;5.23;4.73;;;17.90;52.40;;;;;;5014566;28;20427;-72
2021/07/08 05:19:30;;;;;;;6.90;5.20;;;17.90;52.80;;;;;;5015077;28;20472;-72
2021/07/08 05:21:56;;;;;;;6.90;4.80;;;18.00;52.70;;;;;;4997541;28;20433;-72
2021/07/08 05:24:23;;;;;;;5.20;4.70;;;18.10;52.50;;;;;;5015287;28;20473;-72
2021/07/08 05:26:50;;;;;;;4.30;3.67;;;18.20;51.30;;;;;;5015469;28;20430;-73
2021/07/08 05:29:16;;;;;;;5.23;4.37;;;18.30;49.70;;;;;;4997443;28;20419;-72
2021/07/08 05:31:42;;;;;;;5.40;4.03;;;18.40;48.80;;;;;;5015046;28;20469;-72
2021/07/08 05:34:08;;;;;;;3.90;3.50;;;18.40;48.20;;;;;;5015295;28;20442;-72
2021/07/08 05:36:33;;;;;;;9.17;4.23;;;18.40;48.10;;;;;;4998313;28;20439;-72
2021/07/08 05:38:59;;;;;;;4.50;4.00;;;18.40;47.50;;;;;;4996631;28;20638;-72
2021/07/08 05:41:25;;;;;;;5.90;4.63;;;18.50;48.10;;;;;;5019381;28;20302;-71
2021/07/08 05:43:50;;;;;;;5.83;5.33;;;18.40;48.80;;;;;;5020287;28;20203;-72
2021/07/08 05:46:16;;;;;;;11.47;5.23;;;18.40;48.80;;;;;;5020099;28;20187;-72
2021/07/08 05:48:41;;;;;;;4.47;4.07;;;18.40;48.80;;;;;;5020394;28;20203;-72
2021/07/08 05:51:07;;;;;;;4.50;4.10;;;18.40;49.20;;;;;;5002453;28;20191;-71
2021/07/08 05:53:32;;;;;;;6.97;4.27;;;18.40;49.50;;;;;;5015344;28;20221;-73
2021/07/08 05:55:58;;;;;;;5.27;3.30;;;18.50;50.00;;;;;;5016854;28;20191;-73
2021/07/08 05:58:23;;;;;;;4.17;3.80;;;18.50;49.90;;;;;;5021953;28;20188;-72
2021/07/08 06:00:49;;;;;;;5.50;4.03;;;18.50;49.10;;;;;;5020858;28;20191;-73
2021/07/08 06:03:16;;;;;;;5.50;4.10;;;18.60;49.80;;;;;;5003334;28;20771;-73
2021/07/08 06:05:42;;;;;;;4.13;3.73;;;18.70;49.20;;;;;;5020548;28;20566;-72
2021/07/08 06:08:07;;;;;;;4.30;3.90;;;18.80;49.40;;;;;;5018147;28;20441;-73
2021/07/08 06:10:33;;;;;;;4.13;3.40;;;18.90;49.20;;;;;;4999227;28;21144;-72
2021/07/08 06:12:59;;;;;;;4.73;4.33;;;18.90;49.80;;;;;;4998929;28;20443;-73
2021/07/08 06:15:24;;;;;;;6.03;5.10;;;18.90;50.60;;;;;;4999297;28;20228;-72
2021/07/08 06:17:50;;;;;;;5.23;4.53;;;19.00;50.10;;;;;;4998085;28;20709;-72
2021/07/08 06:20:17;;;;;;;5.97;4.20;;;19.10;49.40;;;;;;4997890;28;20180;-71
2021/07/08 06:22:44;;;;;;;4.10;3.60;;;19.10;49.40;;;;;;5000596;28;20398;-73
2021/07/08 06:25:11;;;;;;;3.47;3.17;;;19.20;49.00;;;;;;4995965;28;20555;-73
2021/07/08 06:27:37;;;;;;;4.17;3.60;;;19.30;49.40;;;;;;5013792;28;20457;-73
2021/07/08 06:30:07;;;;;;;4.17;3.77;;;19.30;48.10;;;;;;5013068;28;20411;-72
2021/07/08 06:32:33;;;;;;;3.87;3.47;;;19.20;48.90;;;;;;4996063;28;20176;-73
2021/07/08 06:34:59;;;;;;;7.27;3.73;;;19.20;49.50;;;;;;5011341;28;20441;-72
2021/07/08 06:37:26;;;;;;;9.20;4.20;;;19.20;48.70;;;;;;4993724;28;20416;-72
2021/07/08 06:39:53;;;;;;;6.43;3.87;;;19.30;49.20;;;;;;4993693;28;20423;-72
2021/07/08 06:42:18;;;;;;;6.40;3.70;;;19.30;48.60;;;;;;4993803;28;20419;-72
2021/07/08 06:44:44;;;;;;;5.33;4.83;;;19.20;48.10;;;;;;4993521;28;20459;-71
2021/07/08 06:47:14;;;;;;;4.03;3.63;;;19.20;48.40;;;;;;4993424;28;20219;-72
2021/07/08 06:49:39;;;;;;;4.10;3.20;;;19.30;48.50;;;;;;5005867;28;20271;-71
2021/07/08 06:52:05;;;;;;;5.17;4.63;;;19.30;48.30;;;;;;5012205;28;20561;-72
2021/07/08 06:54:31;;;;;;;5.50;3.70;;;19.20;48.60;;;;;;5012806;28;20319;-72
2021/07/08 06:56:57;;;;;;;5.57;4.80;;;19.20;48.90;;;;;;5012752;28;20183;-73
2021/07/08 06:59:22;;;;;;;5.70;5.10;;;19.20;49.50;;;;;;4995189;28;20419;-72
2021/07/08 07:01:48;;;;;;;4.20;3.80;;;19.10;49.40;;;;;;5012956;28;20172;-72
2021/07/08 07:04:13;;;;;;;4.93;3.53;;;19.10;49.40;;;;;;4995150;28;20208;-73
2021/07/08 07:06:39;;;;;;;6.50;4.60;;;19.00;49.40;;;;;;5013006;28;20238;-72
2021/07/08 07:09:05;;;;;;;7.00;4.77;;;19.00;50.30;;;;;;5012908;28;20172;-71
2021/07/08 07:11:31;;;;;;;5.17;4.70;;;19.00;51.30;;;;;;5011944;28;20458;-72
2021/07/08 07:13:57;;;;;;;6.50;5.57;;;18.90;50.30;;;;;;5012841;28;20196;-70
2021/07/08 07:16:23;;;;;;;6.07;4.03;;;19.00;49.60;;;;;;5013078;28;20417;-73
2021/07/08 07:18:48;;;;;;;4.47;3.40;;;19.00;49.30;;;;;;5011809;28;20183;-73
2021/07/08 07:21:14;;;;;;;4.57;4.17;;;19.00;49.40;;;;;;5012703;28;20193;-73
2021/07/08 07:23:42;;;;;;;4.90;4.33;;;19.00;49.30;;;;;;5012864;28;20207;-72
2021/07/08 07:26:08;;;;;;;4.73;4.17;;;19.00;49.20;;;;;;5012471;28;20168;-72
2021/07/08 07:28:34;;;;;;;5.27;4.77;;;19.10;49.40;;;;;;5012575;28;20407;-73
2021/07/08 07:31:00;;;;;;;4.93;4.53;;;19.00;48.50;;;;;;4984882;28;20420;-71
2021/07/08 07:33:25;;;;;;;4.80;4.13;;;19.10;48.70;;;;;;4996578;28;20470;-72
2021/07/08 07:35:51;;;;;;;4.30;3.90;;;19.00;49.10;;;;;;4992435;28;20195;-72
2021/07/08 07:38:18;;;;;;;5.10;3.83;;;19.00;49.30;;;;;;4992084;28;20523;-73
2021/07/08 07:40:44;;;;;;;4.67;4.27;;;19.00;49.80;;;;;;4991883;28;20310;-72
2021/07/08 07:43:10;;;;;;;4.80;4.40;;;19.10;49.40;;;;;;4992637;28;20455;-72
2021/07/08 07:45:36;;;;;;;7.23;4.07;;;19.10;48.80;;;;;;4991651;28;20462;-73
2021/07/08 07:48:02;;;;;;;6.20;4.40;;;19.10;49.50;;;;;;4991783;28;20408;-73
2021/07/08 07:50:31;;;;;;;9.00;5.17;;;19.10;49.40;;;;;;4996166;28;20488;-73
2021/07/08 07:52:57;;;;;;;4.93;4.30;;;19.10;49.20;;;;;;4991768;28;20236;-76
2021/07/08 07:55:27;;;;;;;4.33;3.93;;;19.10;49.20;;;;;;4975631;28;20941;-72
2021/07/08 07:57:56;;;;;;;7.20;3.87;;;19.10;49.10;;;;;;5005466;28;20180;-73
2021/07/08 08:00:22;;;;;;;8.60;4.33;;;19.20;50.20;;;;;;5008433;28;20783;-73
2021/07/08 08:02:47;;;;;;;4.43;4.03;;;19.20;49.20;;;;;;5004168;28;20435;-72
2021/07/08 08:10:26;;;;;;;5.03;3.70;;;19.50;49.80;;;;;;5010795;28;20408;-72
2021/07/08 08:12:52;;;;;;;5.97;4.10;;;19.80;50.00;;;;;;5010398;28;20407;-73
2021/07/08 08:15:18;;;;;;;8.50;5.20;;;20.10;47.70;;;;;;5009540;28;20204;-73
2021/07/08 08:17:47;;;;;;;15.80;5.10;;;20.30;47.00;;;;;;5001007;28;20549;-72
2021/07/08 08:20:14;;;;;;;5.93;4.73;;;20.60;45.60;;;;;;5008394;28;20498;-72
2021/07/08 08:22:41;;;;;;;4.47;3.90;;;20.80;44.50;;;;;;4991036;28;20841;-72
2021/07/08 08:25:09;;;;;;;5.90;4.20;;;21.00;44.00;;;;;;5003474;28;20502;-72
2021/07/08 08:27:34;;;;;;;5.13;4.13;;;21.10;41.20;;;;;;4988445;28;20412;-73
2021/07/08 08:30:00;;;;;;;4.70;4.30;;;21.30;41.20;;;;;;4989138;28;20474;-72
2021/07/08 08:32:26;;;;;;;7.13;4.03;;;21.60;41.20;;;;;;4992598;28;20211;-73
2021/07/08 08:34:51;;;;;;;5.60;3.77;;;21.70;38.80;;;;;;5002966;28;20243;-73
2021/07/08 08:37:17;;;;;;;4.53;4.03;;;21.80;38.50;;;;;;4994394;28;20192;-73
2021/07/08 08:39:42;;;;;;;4.30;3.23;;;21.90;37.90;;;;;;4990487;28;20176;-72
2021/07/08 08:42:09;;;;;;;4.17;3.60;;;22.00;38.60;;;;;;4990203;28;20184;-72
2021/07/08 08:44:36;;;;;;;5.20;4.70;;;22.10;37.30;;;;;;5006550;28;20207;-72
2021/07/08 08:47:02;;;;;;;8.67;4.33;;;22.00;37.20;;;;;;5002512;28;20506;-71
2021/07/08 08:49:27;;;;;;;10.17;4.90;;;21.90;36.90;;;;;;4985331;28;20411;-72
2021/07/08 08:51:53;;;;;;;6.00;4.20;;;21.80;38.10;;;;;;5010147;28;20403;-72
2021/07/08 08:54:19;;;;;;;9.80;4.90;;;21.80;39.20;;;;;;5009612;28;20226;-72
2021/07/08 08:56:46;;;;;;;5.70;4.07;;;21.90;37.80;;;;;;5008159;28;20502;-72
2021/07/08 08:59:11;;;;;;;9.00;4.47;;;21.80;37.70;;;;;;4989762;28;20194;-72
2021/07/08 09:01:37;;;;;;;5.03;4.50;;;21.90;38.30;;;;;;5000733;28;20423;-71
2021/07/08 09:04:03;;;;;;;4.33;3.80;;;21.90;39.50;;;;;;5006337;28;20214;-72
2021/07/08 09:06:38;;;;;;;3.33;2.80;;;21.80;39.40;;;;;;5010319;28;20600;-72
2021/07/08 09:09:09;;;;;;;3.40;3.10;;;21.80;40.40;;;;;;5007995;28;20908;-73
2021/07/08 09:11:35;;;;;;;4.70;3.80;;;21.90;39.00;;;;;;5008338;28;20423;-72
2021/07/08 09:14:05;;;;;;;4.80;3.60;;;22.10;38.60;;;;;;4982513;28;20491;-72
2021/07/08 09:16:39;;;;;;;3.47;3.10;;;22.30;36.60;;;;;;5004356;28;20996;-72
2021/07/08 09:19:12;;;;;;;3.60;3.30;;;22.40;36.00;;;;;;5008949;28;20493;-72
2021/07/08 09:21:42;;;;;;;2.93;2.60;;;22.40;36.10;;;;;;4988170;28;20426;-72
2021/07/08 09:24:09;;;;;;;3.40;3.10;;;22.40;36.70;;;;;;5006458;28;20463;-73
2021/07/08 09:26:37;;;;;;;4.40;3.10;;;22.60;34.60;;;;;;4996309;28;20780;-72
2021/07/08 09:29:09;;;;;;;3.23;2.83;;;22.60;33.80;;;;;;5002750;28;20411;-71
2021/07/08 09:31:36;;;;;;;5.97;3.10;;;22.50;34.90;;;;;;4992129;28;20430;-71
2021/07/08 09:34:26;;;;;;;4.93;3.03;;;22.60;33.10;;;;;;4997400;28;20454;-72
2021/07/08 09:37:05;;;;;;;4.43;3.03;;;22.40;34.40;;;;;;4994519;28;20862;-71
2021/07/08 09:39:55;;;;;;;3.80;3.00;;;22.50;35.20;;;;;;4990063;28;20788;-72
2021/07/08 09:42:46;;;;;;;4.00;3.57;;;22.60;35.10;;;;;;4997131;28;20838;-71
2021/07/08 09:45:13;;;;;;;3.97;3.57;;;22.70;36.00;;;;;;4985289;28;20473;-72
2021/07/08 09:47:45;;;;;;;3.73;2.97;;;22.80;34.70;;;;;;5013090;28;20439;-72
2021/07/08 09:50:36;;;;;;;4.50;4.10;;;22.80;35.40;;;;;;5012837;28;20423;-72
2021/07/08 09:53:08;;;;;;;4.60;4.00;;;22.90;35.40;;;;;;4986411;28;20454;-72
2021/07/08 09:58:27;;;;;;;4.03;3.10;;;22.80;34.30;;;;;;5013605;28;20403;-72
2021/07/08 10:00:52;;;;;;;5.23;3.13;;;22.60;33.70;;;;;;5012308;28;20916;-72
2021/07/08 10:03:18;;;;;;;5.73;2.93;;;22.50;34.70;;;;;;5013027;28;20457;-72
2021/07/08 10:05:45;;;;;;;3.60;2.40;;;22.40;33.70;;;;;;5012730;28;20254;-73
2021/07/08 10:08:10;;;;;;;2.60;2.30;;;22.30;34.20;;;;;;5012217;28;20466;-72
2021/07/08 10:10:37;;;;;;;2.37;2.17;;;22.20;33.40;;;;;;5011277;28;20423;-72
2021/07/08 10:13:04;;;;;;;3.83;2.73;;;22.20;33.50;;;;;;5012307;28;20279;-72
2021/07/08 10:15:34;;;;;;;2.83;2.33;;;22.30;33.40;;;;;;5009200;28;20449;-72
2021/07/08 10:18:03;;;;;;;2.80;2.60;;;22.40;33.40;;;;;;5011726;28;20521;-73
2021/07/08 10:20:30;;;;;;;3.10;2.80;;;22.60;30.90;;;;;;5011429;28;20431;-72
2021/07/08 10:22:57;;;;;;;2.73;2.53;;;22.80;30.50;;;;;;4995563;28;20442;-72
2021/07/08 10:25:23;;;;;;;2.50;2.30;;;22.90;30.10;;;;;;4986864;28;20488;-72
2021/07/08 10:27:49;;;;;;;3.87;2.83;;;23.00;29.80;;;;;;5008269;28;20435;-72
2021/07/08 10:30:18;;;;;;;5.10;2.70;;;23.00;31.20;;;;;;4989031;28;20375;-73
2021/07/08 10:32:43;;;;;;;2.63;2.40;;;23.10;31.20;;;;;;5012301;28;20424;-72
2021/07/08 10:35:09;;;;;;;3.97;3.10;;;23.10;29.60;;;;;;5012140;28;20537;-72
2021/07/08 10:37:40;;;;;;;3.87;3.57;;;23.10;28.60;;;;;;5012900;28;20227;-73
2021/07/08 10:40:07;;;;;;;3.30;3.00;;;22.90;29.00;;;;;;5012601;28;20208;-72
2021/07/08 10:42:46;;;;;;;7.13;2.77;;;22.80;29.70;;;;;;5012720;28;20419;-72
2021/07/08 10:45:38;;;;;;;3.63;3.30;;;22.70;31.20;;;;;;5012369;28;20824;-72
2021/07/08 10:48:11;;;;;;;8.83;3.03;;;22.40;31.30;;;;;;5012359;28;20460;-72
2021/07/08 10:50:37;;;;;;;3.40;2.70;;;22.20;32.90;;;;;;5012631;28;20409;-72
2021/07/08 10:53:30;;;;;;;3.27;2.50;;;22.10;34.50;;;;;;5012047;28;20490;-72
2021/07/08 10:56:05;;;;;;;3.00;2.70;;;22.00;33.20;;;;;;5037480;23;20731;-71
2021/07/08 10:58:45;;;;;;;4.10;3.20;;;22.10;32.20;;;;;;5013163;28;20435;-69
2021/07/08 11:01:26;;;;;;;3.70;2.90;;;22.10;32.00;;;;;;5013207;28;20922;-70
2021/07/08 11:03:58;;;;;;;3.20;2.70;;;22.20;31.90;;;;;;5013385;28;20461;-70
2021/07/08 11:06:26;;;;;;;3.47;2.63;;;22.30;33.50;;;;;;5013380;28;20450;-69
2021/07/08 11:08:56;;;;;;;3.63;2.83;;;22.20;33.20;;;;;;5012777;28;20556;-70
2021/07/08 11:11:22;;;;;;;2.33;2.13;;;22.20;33.30;;;;;;5013669;28;20407;-70
2021/07/08 11:13:48;;;;;;;2.17;1.90;;;22.10;33.70;;;;;;5012975;28;20415;-70
2021/07/08 11:16:40;;;;;;;5.53;3.33;;;22.00;33.10;;;;;;5012989;28;20188;-70
2021/07/08 11:19:06;;;;;;;2.97;2.60;;;22.10;33.80;;;;;;5016855;28;20973;-70
2021/07/08 11:21:50;;;;;;;2.63;2.40;;;22.20;32.80;;;;;;4998548;28;20422;-71
2021/07/08 11:24:23;;;;;;;3.03;2.10;;;22.20;32.50;;;;;;5015770;28;20215;-70
2021/07/08 11:27:03;;;;;;;2.37;1.93;;;22.30;31.20;;;;;;5014986;28;20403;-70
2021/07/08 11:29:34;;;;;;;5.30;2.60;;;22.50;31.40;;;;;;4994919;28;20437;-70
2021/07/08 11:32:01;;;;;;;3.37;2.53;;;22.70;30.50;;;;;;5013566;28;20485;-70
2021/07/08 11:34:27;;;;;;;7.53;2.47;;;22.90;29.80;;;;;;5013609;28;20445;-69
2021/07/08 11:36:56;;;;;;;2.80;2.60;;;23.20;29.70;;;;;;5013639;28;20778;-70
2021/07/08 11:39:26;;;;;;;2.50;2.20;;;23.00;29.50;;;;;;5013615;28;20534;-70
2021/07/08 11:41:56;;;;;;;3.77;2.37;;;22.80;29.90;;;;;;4995880;28;20422;-71
2021/07/08 11:44:31;;;;;;;3.47;2.60;;;22.70;30.50;;;;;;4996367;28;20475;-70
2021/07/08 11:46:57;;;;;;;2.77;2.57;;;22.80;29.60;;;;;;4994525;28;20419;-70
2021/07/08 11:49:26;;;;;;;3.30;2.93;;;22.90;30.20;;;;;;4992723;28;20787;-70
2021/07/08 11:51:51;;;;;;;2.53;2.33;;;22.90;29.80;;;;;;5005757;28;21037;-70
2021/07/08 11:54:17;;;;;;;3.13;2.17;;;23.00;30.70;;;;;;5011717;28;20450;-70
2021/07/08 11:56:42;;;;;;;2.50;2.17;;;23.10;30.00;;;;;;4992242;28;20191;-70
2021/07/08 11:59:08;;;;;;;3.50;2.90;;;23.00;30.40;;;;;;4994997;28;20777;-70
2021/07/08 12:01:39;;;;;;;2.87;2.60;;;23.10;31.00;;;;;;4975512;28;20287;-70
2021/07/08 12:04:05;;;;;;;2.33;2.13;;;23.30;31.20;;;;;;5005572;28;20215;-70
2021/07/08 12:06:31;;;;;;;2.50;2.30;;;23.30;29.90;;;;;;5011832;28;20904;-70
2021/07/08 12:08:59;;;;;;;2.73;2.30;;;23.50;30.00;;;;;;5012362;28;20176;-71
2021/07/08 12:11:25;;;;;;;2.30;2.10;;;23.60;30.80;;;;;;5011409;28;20427;-72
2021/07/08 12:13:56;;;;;;;3.67;2.70;;;23.80;28.70;;;;;;5012002;28;20418;-76
2021/07/08 12:16:35;;;;;;;2.83;2.43;;;23.80;30.00;;;;;;5011823;28;20518;-72
2021/07/08 12:19:03;;;;;;;3.90;2.93;;;23.90;30.00;;;;;;5011825;28;20464;-75
2021/07/08 12:21:32;;;;;;;2.60;2.40;;;23.90;30.20;;;;;;5012436;28;20937;-71
2021/07/08 12:24:01;;;;;;;3.50;2.77;;;23.80;31.00;;;;;;5012632;28;20501;-70
2021/07/08 12:26:33;;;;;;;2.70;2.50;;;23.60;30.90;;;;;;4997188;28;20466;-71
2021/07/08 12:29:10;;;;;;;2.63;2.43;;;23.40;32.20;;;;;;4992537;28;20416;-71
2021/07/08 12:31:58;;;;;;;2.40;2.20;;;23.30;32.50;;;;;;4993277;28;20434;-71
2021/07/08 12:34:37;;;;;;;2.37;2.17;;;23.10;32.60;;;;;;4993417;28;20535;-71
2021/07/08 12:37:19;;;;;;;3.03;2.77;;;22.80;33.20;;;;;;4993754;28;20419;-71
2021/07/08 12:40:06;;;;;;;3.03;2.50;;;22.60;34.10;;;;;;4976263;28;20471;-70
2021/07/08 12:42:34;;;;;;;2.40;1.90;;;22.70;33.20;;;;;;4982459;28;20806;-71
2021/07/08 12:45:05;;;;;;;5.40;2.50;;;22.60;31.50;;;;;;4993328;28;20470;-72
2021/07/08 12:47:32;;;;;;;2.97;2.30;;;22.40;32.60;;;;;;4977508;28;20778;-70
2021/07/08 12:49:59;;;;;;;2.70;2.50;;;22.60;32.90;;;;;;4993906;28;20430;-72
2021/07/08 12:52:25;;;;;;;3.00;2.70;;;22.80;31.70;;;;;;4993158;28;20760;-70
2021/07/08 12:54:50;;;;;;;7.13;2.90;;;23.00;30.70;;;;;;4992266;28;20474;-70
2021/07/08 12:57:20;;;;;;;2.37;2.17;;;23.30;31.00;;;;;;4992340;28;20327;-70